Time;durP1;ratioP1;P1;durP2;ratioP2;P2;SDS_P1;SDS_P2;PMS_P1;PMS_P2;Temp;Humidity;BMP_temperature;BMP_pressure;BME280_temperature;BME280_humidity;BME280_pressure;Samples;Min_cycle;Max_cycle;Signal;HPM_P1;HPM_P2
2022/02/08 00:02:16;;;;;;;31.13;4.25;;;;;;;8.29;80.76;102598.31;5057274;28;20032;-63
2022/02/08 00:04:42;;;;;;;34.50;4.53;;;;;;;8.24;81.08;102605.28;5069645;28;20068;-64
2022/02/08 00:07:09;;;;;;;28.45;3.85;;;;;;;8.29;80.98;102600.06;5068673;28;20461;-65
2022/02/08 00:09:35;;;;;;;36.30;4.53;;;;;;;8.26;81.32;102603.56;5069563;28;20073;-64
2022/02/08 00:12:01;;;;;;;26.83;3.60;;;;;;;8.28;81.48;102604.44;5069109;28;20107;-65
2022/02/08 00:14:26;;;;;;;25.83;4.50;;;;;;;8.29;81.45;102605.31;5069384;28;20013;-65
2022/02/08 00:16:52;;;;;;;29.63;4.03;;;;;;;8.29;81.47;102611.47;5065079;28;20028;-65
2022/02/08 00:19:17;;;;;;;27.33;4.20;;;;;;;8.35;81.57;102600.09;5058063;28;20032;-63
2022/02/08 00:21:42;;;;;;;42.28;5.18;;;;;;;8.33;81.67;102614.97;5049735;28;20025;-65
2022/02/08 00:24:08;;;;;;;23.58;3.97;;;;;;;8.35;81.72;102600.09;5049119;28;20109;-65
2022/02/08 00:26:34;;;;;;;40.70;5.15;;;;;;;8.44;81.68;102589.63;5047816;28;20111;-65
2022/02/08 00:28:59;;;;;;;28.20;4.68;;;;;;;8.46;81.94;102610.66;5051444;28;20407;-65
2022/02/08 00:31:24;;;;;;;31.23;5.47;;;;;;;8.41;81.88;102605.38;5054058;28;20025;-65
2022/02/08 00:33:50;;;;;;;33.47;4.95;;;;;;;8.44;82.08;102600.13;5077858;28;20501;-64
2022/02/08 00:36:15;;;;;;;31.98;4.45;;;;;;;8.51;82.22;102603.66;5075672;28;20382;-65
2022/02/08 00:38:40;;;;;;;26.85;4.90;;;;;;;8.56;82.30;102595.81;5048642;28;20075;-64
2022/02/08 00:41:06;;;;;;;24.90;3.90;;;;;;;8.52;82.60;102594.88;5048439;28;20024;-64
2022/02/08 00:43:39;;;;;;;32.25;5.13;;;;;;;8.50;82.96;102595.75;5031115;28;20069;-64
2022/02/08 00:46:11;;;;;;;25.23;4.10;;;;;;;8.53;83.03;102601.91;5047663;28;20416;-64
2022/02/08 00:48:40;;;;;;;31.55;4.50;;;;;;;8.49;83.42;102602.75;5053324;28;20033;-64
2022/02/08 00:51:06;;;;;;;34.25;5.22;;;;;;;8.51;83.57;102603.66;5059360;28;20082;-66
2022/02/08 00:53:32;;;;;;;22.88;4.05;;;;;;;8.58;83.42;102600.19;5055281;28;20028;-65
2022/02/08 00:55:57;;;;;;;34.10;4.63;;;;;;;8.48;83.83;102601.00;5063700;28;20025;-65
2022/02/08 00:58:22;;;;;;;28.63;5.47;;;;;;;8.53;83.67;102596.66;5033871;28;20119;-64
2022/02/08 01:00:48;;;;;;;34.70;5.07;;;;;;;8.59;83.42;102598.44;5067023;28;20061;-65
2022/02/08 01:03:16;;;;;;;30.70;4.93;;;;;;;8.66;83.24;102587.09;5068095;28;20043;-64
2022/02/08 01:05:46;;;;;;;26.83;5.10;;;;;;;8.67;83.32;102583.56;5068857;28;20123;-63
2022/02/08 01:08:11;;;;;;;28.60;5.82;;;;;;;8.68;83.26;102590.59;5067957;28;20039;-63
2022/02/08 01:10:39;;;;;;;24.70;5.40;;;;;;;8.68;82.96;102589.72;5068359;28;20024;-63
2022/02/08 01:13:05;;;;;;;27.27;7.55;;;;;;;8.75;83.30;102590.59;5068453;28;20162;-64
2022/02/08 01:15:30;;;;;;;29.15;5.35;;;;;;;8.78;83.13;102586.22;5068671;28;20031;-65
2022/02/08 01:17:58;;;;;;;31.92;5.93;;;;;;;8.77;82.97;102584.47;5067442;28;20028;-65
2022/02/08 01:20:31;;;;;;;27.25;5.78;;;;;;;8.88;82.89;102591.50;5055994;28;20137;-64
2022/02/08 01:22:58;;;;;;;35.15;5.40;;;;;;;8.84;82.78;102588.88;5067766;28;20028;-65
2022/02/08 01:25:30;;;;;;;25.42;4.90;;;;;;;8.86;82.48;102573.09;5050000;28;20044;-64
2022/02/08 01:28:00;;;;;;;32.53;5.53;;;;;;;8.92;82.57;102578.38;5067668;28;20032;-64
2022/02/08 01:30:40;;;;;;;27.92;5.15;;;;;;;8.89;82.49;102590.63;5067771;28;20033;-64
2022/02/08 01:38:15;;;;;;;25.20;4.95;;;;;;;8.93;82.56;102584.50;5066812;28;20094;-64
2022/02/08 01:41:08;;;;;;;30.00;6.70;;;;;;;8.93;82.95;102585.38;5051657;28;20036;-64
2022/02/08 01:44:04;;;;;;;23.10;4.68;;;;;;;8.96;82.88;102589.75;5063139;28;20028;-65
2022/02/08 01:46:32;;;;;;;25.70;5.03;;;;;;;8.92;83.09;102596.78;5058140;28;20483;-63
2022/02/08 01:49:10;;;;;;;24.98;6.57;;;;;;;8.96;83.05;102595.91;5059041;28;20040;-64
2022/02/08 01:51:36;;;;;;;26.13;6.00;;;;;;;8.98;82.87;102588.88;5061366;28;20029;-64
2022/02/08 01:54:01;;;;;;;26.75;5.03;;;;;;;8.94;83.00;102596.78;5049678;28;20024;-64
2022/02/08 01:56:29;;;;;;;23.65;3.85;;;;;;;8.99;83.17;102610.78;5055614;28;20040;-65
2022/02/08 01:58:57;;;;;;;23.08;4.70;;;;;;;9.02;82.66;102599.41;5060413;28;20060;-64
2022/02/08 02:01:22;;;;;;;22.45;3.97;;;;;;;9.01;82.48;102598.53;5055219;28;20009;-64
2022/02/08 02:03:48;;;;;;;22.48;4.18;;;;;;;8.98;82.83;102602.03;5055927;28;20137;-64
2022/02/08 02:06:13;;;;;;;30.45;4.15;;;;;;;9.04;82.62;102609.06;5058325;28;20060;-65
2022/02/08 02:08:39;;;;;;;21.88;3.83;;;;;;;9.08;82.73;102618.69;5066445;28;20059;-64
2022/02/08 02:11:04;;;;;;;24.73;3.75;;;;;;;9.13;82.61;102613.44;5066968;28;20128;-64
2022/02/08 02:13:42;;;;;;;20.35;4.00;;;;;;;9.16;82.27;102612.56;5067001;28;20025;-63
2022/02/08 02:16:09;;;;;;;21.55;4.75;;;;;;;9.15;82.48;102610.81;5066231;28;20596;-65
2022/02/08 02:18:34;;;;;;;24.42;4.65;;;;;;;9.15;82.69;102601.16;5066980;28;20032;-66
2022/02/08 02:20:59;;;;;;;23.90;4.80;;;;;;;9.16;82.81;102602.03;5066793;28;20033;-67
2022/02/08 02:23:25;;;;;;;17.85;4.82;;;;;;;9.22;82.43;102595.03;5060449;28;20388;-65
2022/02/08 02:25:50;;;;;;;19.17;4.53;;;;;;;9.23;82.14;102614.31;5046693;28;20107;-65
2022/02/08 02:28:15;;;;;;;18.10;4.50;;;;;;;9.20;82.12;102601.16;5046640;28;20064;-64
2022/02/08 02:30:41;;;;;;;25.35;4.90;;;;;;;9.28;82.32;102601.16;5046764;28;20493;-65
2022/02/08 02:33:07;;;;;;;15.85;4.00;;;;;;;9.27;82.29;102604.69;5055019;28;20098;-66
2022/02/08 02:35:33;;;;;;;16.45;4.82;;;;;;;9.20;82.36;102603.78;5076932;28;20024;-64
2022/02/08 02:37:59;;;;;;;16.73;3.85;;;;;;;9.25;82.19;102602.06;5044942;28;20466;-63
2022/02/08 02:40:25;;;;;;;22.13;4.35;;;;;;;9.23;82.17;102599.44;5050511;28;20043;-63
2022/02/08 02:42:51;;;;;;;20.45;3.70;;;;;;;9.28;82.03;102588.91;5082620;28;20020;-63
2022/02/08 02:45:20;;;;;;;20.85;4.07;;;;;;;9.28;81.99;102586.28;5065507;28;20104;-65
2022/02/08 02:47:45;;;;;;;19.45;3.75;;;;;;;9.30;81.88;102587.13;5063829;28;20031;-64
2022/02/08 02:50:11;;;;;;;24.38;3.55;;;;;;;9.19;81.88;102573.13;5065939;28;20108;-66
2022/02/08 02:52:36;;;;;;;18.77;3.83;;;;;;;9.30;81.91;102581.03;5064531;28;20490;-64
2022/02/08 02:55:02;;;;;;;18.58;3.33;;;;;;;9.27;81.67;102578.38;5045109;28;20109;-64
2022/02/08 02:57:28;;;;;;;14.10;3.35;;;;;;;9.24;81.83;102581.88;5065362;28;20067;-64
2022/02/08 03:00:06;;;;;;;15.95;3.38;;;;;;;9.25;81.68;102593.28;5064392;28;20048;-64
2022/02/08 03:18:35;;;;;;;17.77;3.40;;;;;;;9.32;81.38;102597.66;5065385;28;20093;-64
2022/02/08 03:21:03;;;;;;;13.75;2.90;;;;;;;9.34;81.07;102595.91;5065553;28;20044;-63
2022/02/08 03:23:29;;;;;;;20.30;3.50;;;;;;;9.26;81.51;102588.03;5064307;28;20020;-64
2022/02/08 03:25:54;;;;;;;15.05;2.92;;;;;;;9.31;81.29;102583.66;5065370;28;20467;-63
2022/02/08 03:28:19;;;;;;;20.45;3.90;;;;;;;9.26;81.15;102582.75;5065936;28;20097;-65
2022/02/08 03:30:45;;;;;;;19.42;3.28;;;;;;;9.28;81.16;102583.66;5065067;28;20555;-65
2022/02/08 03:33:10;;;;;;;14.52;3.35;;;;;;;9.31;80.86;102590.66;5066371;28;20090;-64
2022/02/08 03:35:36;;;;;;;15.55;3.13;;;;;;;9.23;81.28;102598.53;5065929;28;20345;-64
2022/02/08 03:38:04;;;;;;;18.63;2.80;;;;;;;9.24;81.12;102589.75;5047681;28;20437;-64
2022/02/08 03:40:39;;;;;;;23.05;3.80;;;;;;;9.21;80.89;102588.00;5046480;28;20029;-64
2022/02/08 03:43:26;;;;;;;17.90;3.15;;;;;;;9.27;80.67;102581.88;5066650;28;20042;-65
2022/02/08 03:45:54;;;;;;;15.45;2.78;;;;;;;9.15;80.68;102601.16;5058667;28;20052;-63
2022/02/08 03:48:22;;;;;;;15.07;2.37;;;;;;;9.20;80.45;102598.53;5062130;28;20123;-65
2022/02/08 03:50:54;;;;;;;23.27;3.47;;;;;;;9.29;79.89;102595.03;5065436;28;20451;-64
2022/02/08 03:53:20;;;;;;;20.02;3.97;;;;;;;9.28;79.67;102590.66;5065380;28;20281;-64
2022/02/08 03:55:46;;;;;;;16.02;3.05;;;;;;;9.30;79.68;102602.91;5065223;28;20070;-64
2022/02/08 03:58:12;;;;;;;13.80;2.72;;;;;;;9.28;79.02;102609.06;5047485;28;20036;-64
2022/02/08 04:00:51;;;;;;;22.20;3.42;;;;;;;9.34;78.67;102602.03;5045760;28;20013;-63
2022/02/08 04:03:17;;;;;;;17.10;2.92;;;;;;;9.31;78.50;102606.44;5065416;28;20120;-64
2022/02/08 04:05:46;;;;;;;19.45;3.22;;;;;;;9.26;78.58;102602.91;5047231;28;20108;-65
2022/02/08 04:08:14;;;;;;;14.95;2.50;;;;;;;9.31;78.11;102606.44;5065980;28;20103;-64
2022/02/08 04:10:42;;;;;;;14.73;2.72;;;;;;;9.32;78.14;102613.44;5065904;28;20090;-64
2022/02/08 04:13:13;;;;;;;18.10;2.95;;;;;;;9.29;78.09;102609.06;5065176;28;20226;-63
2022/02/08 04:34:24;;;;;;;16.90;3.33;;;;;;;9.37;76.48;102622.22;5081490;28;20051;-64
2022/02/08 04:37:30;;;;;;;12.57;3.25;;;;;;;9.41;76.34;102621.34;5087745;28;20031;-64
2022/02/08 04:45:10;;;;;;;13.45;2.70;;;;;;;9.43;76.53;102611.72;5088927;28;20376;-65
2022/02/08 04:50:19;;;;;;;11.93;2.40;;;;;;;9.44;76.59;102608.19;5089070;28;20109;-65
2022/02/08 04:52:45;;;;;;;13.63;2.25;;;;;;;9.42;77.01;102609.94;5089224;28;20480;-64
2022/02/08 05:00:29;;;;;;;16.35;2.00;;;;;;;9.41;76.74;102615.19;5088152;28;20032;-64
2022/02/08 05:35:52;;;;;;;20.67;2.97;;;;;;;9.43;75.05;102602.94;5068509;28;20098;-64
2022/02/08 05:43:50;;;;;;;15.05;2.38;;;;;;;9.41;74.60;102591.50;5065952;28;20033;-63
2022/02/08 05:48:52;;;;;;;20.73;2.58;;;;;;;9.48;74.63;102604.66;5067269;28;20048;-64
2022/02/08 05:51:22;;;;;;;22.17;3.13;;;;;;;9.54;74.54;102582.72;5066798;28;20048;-64
2022/02/08 05:53:47;;;;;;;;;;;;;;;9.52;74.45;102597.66;5050144;28;20025;-63
2022/02/08 05:56:14;;;;;;;17.35;2.95;;;;;;;9.54;74.57;102581.88;5060414;28;19961;-64
2022/02/08 05:58:42;;;;;;;14.90;2.25;;;;;;;9.53;74.87;102588.88;5067056;28;20031;-65
2022/02/08 06:01:07;;;;;;;20.95;2.70;;;;;;;9.51;74.61;102588.00;5066317;28;20448;-65
2022/02/08 06:03:33;;;;;;;19.48;2.90;;;;;;;9.51;74.90;102584.50;5066814;28;20128;-64
2022/02/08 06:05:58;;;;;;;10.60;2.17;;;;;;;9.54;74.48;102588.00;5066414;28;20044;-65
2022/02/08 06:08:23;;;;;;;23.88;3.35;;;;;;;9.57;74.59;102584.50;5066769;28;20078;-65
2022/02/08 06:10:53;;;;;;;13.77;2.47;;;;;;;9.51;74.68;102580.09;5066363;28;20056;-64
2022/02/08 06:13:20;;;;;;;12.90;2.60;;;;;;;9.54;74.68;102576.59;5059500;28;20487;-64
2022/02/08 06:15:48;;;;;;;19.60;2.90;;;;;;;9.53;74.60;102586.25;5062911;28;20127;-65
2022/02/08 06:18:13;;;;;;;12.13;2.83;;;;;;;9.57;74.43;102588.00;5072538;28;20033;-64
2022/02/08 06:20:39;;;;;;;19.08;2.92;;;;;;;9.61;73.94;102595.00;5065436;28;20528;-64
2022/02/08 06:23:04;;;;;;;21.48;3.40;;;;;;;9.59;74.06;102586.25;5061863;28;20546;-63
2022/02/08 06:25:30;;;;;;;20.27;3.03;;;;;;;9.56;73.92;102594.13;5055196;28;20077;-64
2022/02/08 06:27:55;;;;;;;14.80;2.50;;;;;;;9.54;74.07;102606.41;5061651;28;20017;-64
2022/02/08 06:30:23;;;;;;;17.65;2.80;;;;;;;9.54;73.88;102611.66;5064626;28;20089;-64
2022/02/08 06:32:51;;;;;;;18.73;4.00;;;;;;;9.57;73.59;102606.41;5060684;28;20040;-66
2022/02/08 06:35:22;;;;;;;14.40;3.03;;;;;;;9.62;73.47;102609.03;5054611;28;20029;-66
2022/02/08 06:37:47;;;;;;;12.93;2.20;;;;;;;9.61;73.73;102605.53;5056922;28;20028;-66
2022/02/08 06:40:13;;;;;;;17.35;2.65;;;;;;;9.61;73.64;102602.03;5065430;28;20391;-67
2022/02/08 06:42:40;;;;;;;11.95;2.35;;;;;;;9.65;73.69;102605.50;5065829;28;20425;-63
2022/02/08 06:45:07;;;;;;;20.00;3.03;;;;;;;9.63;73.37;102613.41;5045512;28;20085;-62
2022/02/08 06:47:33;;;;;;;11.98;2.30;;;;;;;9.64;73.63;102614.31;5061587;28;20122;-64
2022/02/08 06:49:58;;;;;;;15.90;2.55;;;;;;;9.63;73.54;102618.69;5054322;28;20072;-66
2022/02/08 06:52:24;;;;;;;14.68;3.05;;;;;;;9.63;73.39;102617.81;5052001;28;20490;-61
2022/02/08 06:54:50;;;;;;;14.57;2.35;;;;;;;9.65;73.59;102621.31;5054415;28;20495;-63
2022/02/08 06:57:15;;;;;;;15.77;2.22;;;;;;;9.64;72.98;102619.56;5055777;28;20085;-61
2022/02/08 06:59:49;;;;;;;14.82;2.28;;;;;;;9.66;73.27;102633.63;5055683;28;20017;-63
2022/02/08 07:02:14;;;;;;;8.90;2.00;;;;;;;9.67;72.96;102635.34;5055126;28;20025;-60
2022/02/08 07:04:39;;;;;;;19.30;2.92;;;;;;;9.72;72.80;102639.72;5054992;28;20048;-64
2022/02/08 07:07:05;;;;;;;20.85;2.53;;;;;;;9.70;72.81;102638.84;5056204;28;20020;-63
2022/02/08 07:09:30;;;;;;;8.77;1.80;;;;;;;9.67;72.63;102641.50;5052894;28;20048;-67
2022/02/08 07:11:57;;;;;;;14.80;2.92;;;;;;;9.68;72.88;102638.00;5055455;28;20033;-66
2022/02/08 07:14:28;;;;;;;11.18;2.53;;;;;;;9.67;72.67;102628.34;5054737;28;20027;-64
2022/02/08 07:16:53;;;;;;;13.70;2.83;;;;;;;9.71;72.30;102634.47;5053131;28;20029;-63
2022/02/08 07:19:19;;;;;;;14.73;2.50;;;;;;;9.68;72.29;102629.22;5055077;28;20498;-64
2022/02/08 07:21:45;;;;;;;13.43;2.30;;;;;;;9.65;72.44;102631.84;5054998;28;20128;-63
2022/02/08 07:24:11;;;;;;;14.85;2.05;;;;;;;9.67;72.33;102635.34;5054075;28;20037;-64
2022/02/08 07:26:37;;;;;;;11.48;2.70;;;;;;;9.73;72.27;102643.25;5055470;28;20028;-63
2022/02/08 07:29:02;;;;;;;8.05;1.90;;;;;;;9.64;72.58;102644.16;5055013;28;20393;-62
2022/02/08 07:31:36;;;;;;;15.43;2.35;;;;;;;9.63;72.57;102646.78;5059335;28;20036;-63
2022/02/08 07:39:52;;;;;;;13.13;2.70;;;;;;;9.63;72.53;102652.91;5021211;28;20048;-63
2022/02/08 07:42:18;;;;;;;11.43;1.88;;;;;;;9.71;72.01;102659.06;5042699;28;20033;-64
2022/02/08 07:44:44;;;;;;;9.75;1.75;;;;;;;9.69;72.13;102657.31;5045046;28;20105;-62
2022/02/08 07:47:09;;;;;;;9.65;2.25;;;;;;;9.69;72.01;102671.31;5045480;28;20009;-64
2022/02/08 07:49:38;;;;;;;11.40;2.10;;;;;;;9.73;72.06;102665.16;5045375;28;20033;-62
2022/02/08 07:52:04;;;;;;;7.13;2.20;;;;;;;9.79;71.90;102661.69;5055681;28;20025;-63
2022/02/08 07:54:29;;;;;;;11.75;2.05;;;;;;;9.73;71.62;102664.31;5048809;28;20040;-63
2022/02/08 07:56:55;;;;;;;7.57;1.90;;;;;;;9.81;71.64;102659.91;5059675;28;20024;-64
2022/02/08 07:59:20;;;;;;;14.32;1.98;;;;;;;9.88;71.04;102663.41;5058479;28;20115;-63
2022/02/08 08:01:45;;;;;;;8.73;1.80;;;;;;;9.94;71.02;102670.44;5048317;28;20021;-62
2022/02/08 08:04:11;;;;;;;7.38;1.67;;;;;;;9.91;71.24;102663.41;5045416;28;20052;-64
2022/02/08 08:06:36;;;;;;;13.20;1.98;;;;;;;9.91;71.55;102657.25;5044965;28;20403;-64
2022/02/08 08:09:04;;;;;;;6.18;1.58;;;;;;;9.94;71.61;102649.34;5047432;28;20021;-62
2022/02/08 08:11:36;;;;;;;6.38;1.90;;;;;;;10.04;70.64;102661.63;5062425;28;20024;-63
2022/02/08 08:14:04;;;;;;;9.68;1.80;;;;;;;10.03;70.88;102667.78;5057405;28;20049;-62
2022/02/08 08:21:21;;;;;;;9.82;1.65;;;;;;;9.94;71.33;102660.75;5061748;28;20020;-62
2022/02/08 08:23:46;;;;;;;9.68;1.92;;;;;;;9.84;71.67;102662.53;5061385;28;20105;-62
2022/02/08 08:26:12;;;;;;;10.35;2.05;;;;;;;9.86;71.97;102659.91;5057284;28;20116;-69
2022/02/08 08:28:37;;;;;;;11.20;2.13;;;;;;;9.86;72.03;102659.91;5049022;28;20060;-67
2022/02/08 08:31:02;;;;;;;14.98;1.98;;;;;;;9.89;71.74;102657.25;5058961;28;20013;-66
2022/02/08 08:33:28;;;;;;;11.35;2.17;;;;;;;9.84;71.87;102665.16;5056807;28;20379;-67
2022/02/08 08:35:53;;;;;;;10.32;1.95;;;;;;;9.86;71.66;102660.78;5049681;28;20037;-65
2022/02/08 08:38:19;;;;;;;14.93;1.83;;;;;;;9.91;72.00;102666.06;5047773;28;20017;-68
2022/02/08 08:40:56;;;;;;;6.15;1.85;;;;;;;9.90;71.86;102668.69;5047739;28;20412;-67
2022/02/08 08:51:40;;;;;;;9.57;1.63;;;;;;;10.02;71.51;102660.75;5036833;28;20702;-67
2022/02/08 08:54:07;;;;;;;14.10;1.75;;;;;;;10.06;71.08;102680.91;5028782;28;20044;-66
2022/02/08 08:56:33;;;;;;;8.57;1.85;;;;;;;10.06;71.26;102680.06;5023367;28;20436;-66
2022/02/08 08:58:59;;;;;;;7.40;1.48;;;;;;;10.10;70.52;102687.97;5032569;28;20017;-64
2022/02/08 09:01:24;;;;;;;13.68;1.75;;;;;;;10.10;70.58;102687.06;5048008;28;20025;-68
2022/02/08 09:03:52;;;;;;;7.88;1.55;;;;;;;10.17;70.70;102682.69;5043816;28;20459;-67
2022/02/08 09:06:17;;;;;;;7.20;1.65;;;;;;;10.19;70.48;102688.81;5043659;28;20020;-66
2022/02/08 09:08:43;;;;;;;9.82;2.28;;;;;;;10.23;70.38;102709.88;5044992;28;20441;-64
2022/02/08 09:11:19;;;;;;;9.90;1.90;;;;;;;10.27;70.18;102702.84;5043278;28;20053;-66
2022/02/08 09:29:20;;;;;;;8.90;1.48;;;;;;;10.84;68.17;102709.69;5036999;28;20044;-65
2022/02/08 09:31:47;;;;;;;10.05;2.33;;;;;;;10.92;68.27;102701.72;5043642;28;20037;-67
2022/02/08 09:34:12;;;;;;;13.63;1.60;;;;;;;11.01;67.96;102692.88;5043419;28;20021;-66
2022/02/08 09:36:37;;;;;;;12.48;2.05;;;;;;;11.02;67.59;102707.84;5043182;28;20368;-66
2022/02/08 09:39:03;;;;;;;9.25;1.20;;;;;;;11.10;67.15;102694.59;5043840;28;20401;-61
2022/02/08 09:41:31;;;;;;;13.43;1.77;;;;;;;11.24;67.08;102705.06;5043821;28;20067;-67
2022/02/08 09:43:57;;;;;;;11.05;1.70;;;;;;;11.30;66.34;102693.59;5025286;28;20025;-66
2022/02/08 09:46:22;;;;;;;10.85;2.28;;;;;;;11.40;65.90;102684.72;5042193;28;20086;-65
2022/02/08 09:48:55;;;;;;;9.90;1.73;;;;;;;11.50;65.64;102696.09;5043686;28;20033;-67
2022/02/08 09:51:22;;;;;;;7.85;1.45;;;;;;;11.56;64.85;102687.25;5043442;28;20056;-66
2022/02/08 09:53:49;;;;;;;12.38;1.95;;;;;;;11.59;65.40;102680.16;5026644;28;20039;-66
2022/02/08 09:56:14;;;;;;;12.07;2.15;;;;;;;11.67;64.84;102688.00;5043099;28;20025;-61
2022/02/08 09:58:40;;;;;;;7.25;1.60;;;;;;;11.64;64.46;102685.38;5043100;28;20030;-66
2022/02/08 10:01:09;;;;;;;9.63;1.83;;;;;;;11.60;64.67;102708.31;5041748;28;20720;-66
2022/02/08 10:03:34;;;;;;;12.05;1.70;;;;;;;11.66;64.73;102695.94;5034164;28;20289;-66
2022/02/08 10:06:00;;;;;;;8.20;1.63;;;;;;;11.69;64.65;102711.75;5038777;28;20033;-63
2022/02/08 10:08:25;;;;;;;12.10;2.08;;;;;;;11.66;64.58;102706.50;5029367;28;20681;-65
2022/02/08 10:10:51;;;;;;;5.22;1.30;;;;;;;11.67;64.48;102708.25;5025139;28;20044;-64
2022/02/08 10:24:06;;;;;;;9.18;1.50;;;;;;;11.81;63.75;102708.13;5042087;28;20048;-66
2022/02/08 10:29:43;;;;;;;12.00;1.52;;;;;;;11.84;63.60;102710.75;5035247;28;20048;-60
2022/02/08 10:32:21;;;;;;;12.27;1.95;;;;;;;11.71;63.40;102705.56;5028461;28;20032;-65
2022/02/08 10:37:47;;;;;;;10.52;1.83;;;;;;;11.83;62.70;102724.84;5030538;28;20198;-65
2022/02/08 10:40:19;;;;;;;8.30;1.52;;;;;;;11.86;63.42;102704.56;5043030;28;20522;-65
2022/02/08 10:42:56;;;;;;;6.28;1.50;;;;;;;11.84;63.40;102714.28;5042395;28;20364;-65
2022/02/08 10:45:23;;;;;;;8.10;1.50;;;;;;;11.94;62.99;102709.78;5050484;28;20437;-66
2022/02/08 10:47:57;;;;;;;5.68;1.38;;;;;;;11.84;62.83;102706.34;5059431;28;20028;-65
2022/02/08 10:50:24;;;;;;;7.75;1.90;;;;;;;11.84;62.69;102724.84;5063992;28;20147;-67
2022/02/08 10:52:49;;;;;;;11.48;1.85;;;;;;;11.91;62.31;102732.69;5065487;28;20108;-65
2022/02/08 11:00:33;;;;;;;11.27;1.60;;;;;;;11.92;63.00;102715.97;5049850;28;20090;-66
2022/02/08 11:03:00;;;;;;;8.18;1.60;;;;;;;12.04;62.55;102696.47;5047214;28;20133;-66
2022/02/08 11:05:38;;;;;;;7.70;1.40;;;;;;;11.94;62.19;102737.94;5057517;28;20592;-67
2022/02/08 11:08:38;;;;;;;12.77;1.77;;;;;;;12.10;61.87;102712.31;5049470;28;20008;-66
2022/02/08 11:20:59;;;;;;;5.35;1.15;;;;;;;11.92;62.43;102692.19;5062176;28;19939;-67
2022/02/08 11:23:33;;;;;;;10.77;1.75;;;;;;;11.86;62.68;102686.06;5061468;28;20086;-66
2022/02/08 11:26:00;;;;;;;6.15;1.83;;;;;;;11.75;62.92;102677.38;5059561;28;20109;-67
2022/02/08 11:28:44;;;;;;;9.18;1.63;;;;;;;11.57;63.02;102679.31;5064857;28;20063;-66
2022/02/08 11:31:55;;;;;;;7.78;1.77;;;;;;;11.57;63.00;102686.34;5060247;28;20040;-65
2022/02/08 11:34:09;;;;;;;9.32;1.60;;;;;;;11.80;62.62;102688.75;5035189;28;20032;-67
2022/02/08 11:53:13;;;;;;;11.48;1.23;;;;;;;12.35;60.96;102683.84;5069186;28;20378;-67
2022/02/08 11:56:03;;;;;;;8.02;1.77;;;;;;;12.31;61.29;102697.97;5068212;28;20029;-64
2022/02/08 11:58:41;;;;;;;14.93;1.50;;;;;;;12.09;61.93;102685.00;5051877;28;20024;-66
2022/02/08 12:01:16;;;;;;;10.15;1.42;;;;;;;12.31;61.59;102679.47;5068849;28;20115;-66
2022/02/08 12:04:10;;;;;;;8.15;1.60;;;;;;;12.40;61.16;102680.25;5069554;28;20041;-65
2022/02/08 12:06:51;;;;;;;7.80;1.42;;;;;;;12.58;60.45;102672.09;5069328;28;20158;-67
2022/02/08 12:54:49;;;;;;;6.20;1.45;;;;;;;12.49;61.10;102703.94;5052612;28;20133;-66
2022/02/08 13:02:44;;;;;;;8.80;1.58;;;;;;;11.98;63.05;102700.94;5067373;28;20047;-65
2022/02/08 14:08:11;;;;;;;6.72;1.65;;;;;;;12.30;61.69;102680.38;5065331;28;20042;-67
2022/02/08 14:11:37;;;;;;;9.30;1.55;;;;;;;12.19;61.61;102687.56;5066761;28;20035;-66
2022/02/08 14:24:15;;;;;;;9.43;1.47;;;;;;;15.63;52.34;102685.75;5064058;28;20029;-63
2022/02/08 15:10:19;;;;;;;10.05;2.00;;;;;;;18.23;44.23;102678.72;5055392;28;20036;-63
2022/02/08 15:12:51;;;;;;;6.07;1.55;;;;;;;17.71;44.70;102684.97;5054856;28;20511;-62
2022/02/08 15:15:32;;;;;;;8.05;1.27;;;;;;;17.00;46.51;102682.81;5053696;28;20067;-64
2022/02/08 15:17:57;;;;;;;5.78;1.70;;;;;;;16.07;49.12;102687.31;5046570;28;20075;-64
2022/02/08 15:20:23;;;;;;;6.75;2.47;;;;;;;15.54;50.01;102699.31;5054606;28;20502;-63
2022/02/08 15:22:49;;;;;;;10.20;2.00;;;;;;;14.82;52.12;102700.09;5049213;28;20092;-62
2022/02/08 15:25:14;;;;;;;6.28;1.50;;;;;;;14.93;52.19;102689.25;5054449;28;20112;-62
2022/02/08 15:27:43;;;;;;;5.30;1.38;;;;;;;15.04;51.78;102689.88;5056457;28;20082;-66
2022/02/08 15:30:09;;;;;;;10.27;1.80;;;;;;;15.04;51.83;102689.88;5055906;28;20104;-65
2022/02/08 15:32:36;;;;;;;8.13;1.85;;;;;;;14.57;53.18;102700.59;5047873;28;20029;-69
2022/02/08 15:35:02;;;;;;;8.23;1.85;;;;;;;14.02;54.90;102696.34;5065926;28;20056;-69
2022/02/08 15:37:30;;;;;;;10.07;1.60;;;;;;;13.50;56.34;102694.63;5042710;28;20025;-69
2022/02/08 15:39:59;;;;;;;15.13;2.13;;;;;;;13.07;57.81;102701.44;5064480;28;20071;-70
2022/02/08 15:42:30;;;;;;;11.38;1.75;;;;;;;12.78;58.65;102692.13;5064447;28;20023;-68
2022/02/08 15:44:58;;;;;;;8.55;2.00;;;;;;;12.51;59.71;102710.97;5067555;28;20092;-70
2022/02/08 15:47:23;;;;;;;8.20;1.60;;;;;;;12.21;60.42;102705.13;5053709;28;20452;-69
2022/02/08 15:49:57;;;;;;;7.72;1.88;;;;;;;11.86;61.47;102688.72;5052215;28;20040;-71
2022/02/08 15:53:06;;;;;;;7.65;1.48;;;;;;;11.74;61.95;102694.13;5045361;28;20021;-69
2022/02/08 15:55:16;;;;;;;13.13;1.73;;;;;;;11.44;63.11;102680.28;5067326;28;20375;-68
2022/02/08 15:58:21;;;;;;;8.77;1.52;;;;;;;11.25;64.25;102688.34;5062757;28;20021;-70
2022/02/08 16:06:09;;;;;;;9.35;1.40;;;;;;;11.19;64.19;102669.91;5064564;28;20039;-69
2022/02/08 16:08:39;;;;;;;5.60;1.45;;;;;;;11.05;64.84;102681.41;5064914;28;20102;-70
2022/02/08 16:11:36;;;;;;;5.68;1.65;;;;;;;10.99;64.90;102689.41;5063872;28;20109;-68
2022/02/08 16:14:06;;;;;;;5.80;1.50;;;;;;;10.87;65.52;102690.34;5055172;28;20058;-63
2022/02/08 16:32:38;;;;;;;8.23;1.85;;;;;;;10.49;67.25;102714.22;5059011;28;20037;-68
2022/02/08 16:56:57;;;;;;;6.03;1.45;;;;;;;10.25;68.12;102723.03;5054057;28;20033;-65
2022/02/08 16:59:21;;;;;;;10.75;1.80;;;;;;;10.21;68.46;102726.56;5060190;28;20040;-62
2022/02/08 17:01:47;;;;;;;8.40;1.88;;;;;;;10.13;68.82;102738.84;5060043;28;20081;-64
2022/02/08 17:04:12;;;;;;;7.47;1.75;;;;;;;10.13;69.16;102734.47;5048386;28;20557;-63
2022/02/08 17:06:37;;;;;;;10.77;2.15;;;;;;;10.14;69.05;102740.63;5051845;28;20020;-62
2022/02/08 17:09:10;;;;;;;9.77;2.05;;;;;;;10.13;68.92;102736.22;5050998;28;20048;-63
2022/02/08 17:11:47;;;;;;;11.27;1.70;;;;;;;10.09;69.27;102738.88;5047993;28;20118;-63
2022/02/08 17:14:29;;;;;;;13.23;2.25;;;;;;;10.09;69.32;102743.28;5034498;28;20060;-63
2022/02/08 17:17:27;;;;;;;8.63;2.10;;;;;;;10.02;69.35;102733.63;5075898;28;20024;-63
2022/02/08 17:34:29;;;;;;;9.35;2.28;;;;;;;10.04;69.84;102729.22;5059534;28;20051;-62
2022/02/08 17:37:59;;;;;;;10.60;1.90;;;;;;;9.89;70.21;102727.47;5052329;28;20072;-63
2022/02/08 17:48:00;;;;;;;9.32;2.28;;;;;;;9.87;70.24;102722.19;5067429;28;20799;-66
2022/02/08 17:50:08;;;;;;;8.90;2.03;;;;;;;9.86;70.15;102715.19;5052927;28;20178;-64
2022/02/08 17:52:36;;;;;;;11.82;2.65;;;;;;;9.81;70.08;102722.22;5048873;28;20036;-66
2022/02/08 17:55:01;;;;;;;8.00;1.60;;;;;;;9.83;70.05;102723.97;5065687;28;20119;-63
2022/02/08 17:57:26;;;;;;;10.07;2.42;;;;;;;9.83;70.49;102720.47;5066944;28;20169;-64
2022/02/08 17:59:54;;;;;;;5.80;2.20;;;;;;;9.84;70.36;102709.03;5058155;28;20063;-63
2022/02/08 18:02:19;;;;;;;8.55;2.65;;;;;;;9.73;70.42;102720.44;5062145;28;20024;-67
2022/02/08 18:04:47;;;;;;;7.70;2.25;;;;;;;9.67;70.98;102717.84;5048637;28;20055;-64
2022/02/08 18:07:17;;;;;;;13.18;2.35;;;;;;;9.64;70.64;102709.06;5066803;28;20028;-63
2022/02/08 18:09:42;;;;;;;12.60;2.17;;;;;;;9.57;70.78;102714.31;5066929;28;20029;-63
2022/02/08 18:12:08;;;;;;;8.25;1.92;;;;;;;9.56;71.43;102711.69;5066911;28;20035;-64
2022/02/08 18:14:33;;;;;;;13.02;2.30;;;;;;;9.53;71.24;102709.03;5065739;28;20055;-67
2022/02/08 18:17:16;;;;;;;10.50;1.90;;;;;;;9.46;71.60;102705.53;5066813;28;20117;-63
2022/02/08 18:19:48;;;;;;;7.10;1.92;;;;;;;9.39;71.69;102704.66;5067260;28;20089;-65
2022/02/08 18:25:16;;;;;;;18.75;2.55;;;;;;;9.37;72.05;102716.06;5064622;28;20178;-63
2022/02/08 18:28:04;;;;;;;15.63;2.95;;;;;;;9.37;72.17;102713.41;5066618;28;20090;-64